Iselin, New Jersey
Current Conditions -  °F | °C
As of 8:55 PM on Friday 21 Nov 2014 (Local Time) from KLDJ Reporting Station
Clear Clear  
Wind Chill: 28°   Ceiling: Unl
Heat Index: 33°   Visibility: 10mi
Dew Point: 12°   Wind: 5mph
Humidity: 42%   Direction: 310°NW
Pressure: 30.52"   Gusts: NA
Location:  40.57°N, 74.32°W
Report Text: KLDJ 220155Z AUTO 31004KT 10SM CLR 00/M11 A3052 RMK AO2 T00041111
Loading
Personal Weather Stations






























Interactive Weather Map New forecast layout! Learn more

10-Day Weather Forecast

Advertisements
Track Severe Weather on mobile